SHT22A EGLL-EGJB
Flight info
| Callsign | SHT22A |
|---|---|
| Flight time | 0h 33m |
| Altitude | 21000 |
| Route | GASGU2J GASGU N866 SAM/N0382F200 N63 LELNA LELNA1V |
| Aircraft | A319/M-SDE3FGHIRWY/LB1 |
Departure
| Time | 2026-04-22 14:52 |
|---|---|
| Airport | London Heathrow Airport (EGLL) |
Arrival
| Time | 2026-04-22 15:26 |
|---|---|
| Airport | Guernsey Airport (EGJB) |
| Time | Latitude | Longitude | Altitude | Speed | Heading |
|---|---|---|---|---|---|
| 2026-04-22 14:27 | 51.46931 | -0.48859 | 86 ft | 0 kts | 360° |
| 2026-04-22 14:44 | 51.46910 | -0.48859 | 88 ft | 4 kts | 360° |
| 2026-04-22 14:45 | 51.46886 | -0.48858 | 86 ft | 4 kts | 330° |
| 2026-04-22 14:45 | 51.46876 | -0.48833 | 86 ft | 2 kts | 270° |
| 2026-04-22 14:45 | 51.46876 | -0.48796 | 88 ft | 4 kts | 270° |
| 2026-04-22 14:45 | 51.46876 | -0.48754 | 86 ft | 4 kts | 270° |
| 2026-04-22 14:46 | 51.46877 | -0.48711 | 86 ft | 4 kts | 270° |
| 2026-04-22 14:46 | 51.46877 | -0.48702 | 86 ft | 0 kts | 270° |
| 2026-04-22 14:50 | 51.46873 | -0.48731 | 89 ft | 5 kts | 247° |
| 2026-04-22 14:50 | 51.46836 | -0.48750 | 86 ft | 7 kts | 182° |
| 2026-04-22 14:50 | 51.46775 | -0.48750 | 86 ft | 10 kts | 180° |
| 2026-04-22 14:50 | 51.46714 | -0.48750 | 86 ft | 10 kts | 179° |
| 2026-04-22 14:51 | 51.46629 | -0.48754 | 87 ft | 14 kts | 198° |
| 2026-04-22 14:51 | 51.46540 | -0.48790 | 86 ft | 14 kts | 177° |
| 2026-04-22 14:51 | 51.46477 | -0.48676 | 86 ft | 17 kts | 91° |
| 2026-04-22 14:51 | 51.46478 | -0.48395 | 87 ft | 44 kts | 90° |
| 2026-04-22 14:52 | 51.46480 | -0.47593 | 86 ft | 98 kts | 90° |
| 2026-04-22 14:52 | 51.46486 | -0.46241 | 133 ft | 140 kts | 93° |
| 2026-04-22 14:52 | 51.46500 | -0.44617 | 644 ft | 152 kts | 91° |
| 2026-04-22 14:52 | 51.46428 | -0.42847 | 1311 ft | 160 kts | 104° |
| 2026-04-22 14:53 | 51.45875 | -0.41344 | 2197 ft | 158 kts | 124° |
| 2026-04-22 14:53 | 51.45156 | -0.39889 | 2736 ft | 174 kts | 124° |
| 2026-04-22 14:53 | 51.44384 | -0.38316 | 3360 ft | 183 kts | 124° |
| 2026-04-22 14:53 | 51.43503 | -0.36762 | 4032 ft | 199 kts | 139° |
| 2026-04-22 14:54 | 51.42160 | -0.35755 | 4591 ft | 230 kts | 163° |
| 2026-04-22 14:54 | 51.40505 | -0.35352 | 5347 ft | 249 kts | 166° |
| 2026-04-22 14:54 | 51.38723 | -0.34899 | 6085 ft | 264 kts | 170° |
| 2026-04-22 14:54 | 51.36912 | -0.35350 | 7201 ft | 276 kts | 198° |
| 2026-04-22 14:55 | 51.35242 | -0.37000 | 8258 ft | 284 kts | 213° |
| 2026-04-22 14:55 | 51.33773 | -0.39096 | 9268 ft | 289 kts | 220° |
| 2026-04-22 14:55 | 51.32346 | -0.41397 | 10240 ft | 293 kts | 220° |
| 2026-04-22 14:55 | 51.30961 | -0.43921 | 10727 ft | 318 kts | 232° |
| 2026-04-22 14:56 | 51.29971 | -0.47256 | 11066 ft | 346 kts | 248° |
| 2026-04-22 14:56 | 51.29309 | -0.51010 | 11745 ft | 355 kts | 252° |
| 2026-04-22 14:56 | 51.28656 | -0.54830 | 12582 ft | 357 kts | 252° |
| 2026-04-22 14:56 | 51.27980 | -0.58674 | 13360 ft | 362 kts | 251° |
| 2026-04-22 14:57 | 51.27254 | -0.62554 | 14102 ft | 367 kts | 250° |
| 2026-04-22 14:57 | 51.26492 | -0.66464 | 14850 ft | 369 kts | 250° |
| 2026-04-22 14:57 | 51.25714 | -0.70388 | 15562 ft | 372 kts | 251° |
| 2026-04-22 14:57 | 51.24928 | -0.74338 | 16276 ft | 375 kts | 251° |
| 2026-04-22 14:58 | 51.24141 | -0.78322 | 16965 ft | 379 kts | 252° |
| 2026-04-22 14:58 | 51.23344 | -0.82359 | 17688 ft | 382 kts | 252° |
| 2026-04-22 14:58 | 51.22544 | -0.86419 | 18441 ft | 384 kts | 253° |
| 2026-04-22 14:58 | 51.21742 | -0.90484 | 19063 ft | 387 kts | 252° |
| 2026-04-22 14:59 | 51.20679 | -0.94459 | 19678 ft | 392 kts | 243° |
| 2026-04-22 14:59 | 51.19164 | -0.98086 | 20321 ft | 395 kts | 232° |
| 2026-04-22 14:59 | 51.17260 | -1.01256 | 20971 ft | 398 kts | 226° |
| 2026-04-22 14:59 | 51.15257 | -1.04327 | 21227 ft | 400 kts | 226° |
| 2026-04-22 15:00 | 51.13256 | -1.07399 | 21297 ft | 399 kts | 226° |
| 2026-04-22 15:00 | 51.11260 | -1.10462 | 21302 ft | 397 kts | 226° |
| 2026-04-22 15:00 | 51.09268 | -1.13516 | 21301 ft | 398 kts | 226° |
| 2026-04-22 15:00 | 51.07271 | -1.16579 | 21278 ft | 398 kts | 226° |
| 2026-04-22 15:01 | 51.05285 | -1.19626 | 21280 ft | 397 kts | 226° |
| 2026-04-22 15:01 | 51.03295 | -1.22673 | 21273 ft | 397 kts | 226° |
| 2026-04-22 15:01 | 51.01298 | -1.25721 | 21273 ft | 398 kts | 225° |
| 2026-04-22 15:01 | 50.99327 | -1.28719 | 21275 ft | 397 kts | 225° |
| 2026-04-22 15:02 | 50.97332 | -1.31748 | 21272 ft | 397 kts | 224° |
| 2026-04-22 15:02 | 50.95197 | -1.34519 | 21257 ft | 398 kts | 215° |
| 2026-04-22 15:02 | 50.92790 | -1.36696 | 21265 ft | 399 kts | 207° |
| 2026-04-22 15:02 | 50.90305 | -1.38666 | 21272 ft | 400 kts | 207° |
| 2026-04-22 15:03 | 50.87818 | -1.40642 | 21260 ft | 400 kts | 208° |
| 2026-04-22 15:03 | 50.85338 | -1.42622 | 21272 ft | 397 kts | 207° |
| 2026-04-22 15:03 | 50.82882 | -1.44586 | 21272 ft | 395 kts | 208° |
| 2026-04-22 15:03 | 50.80430 | -1.46542 | 21273 ft | 395 kts | 207° |
| 2026-04-22 15:04 | 50.77976 | -1.48497 | 21273 ft | 394 kts | 208° |
| 2026-04-22 15:04 | 50.75526 | -1.50442 | 21273 ft | 394 kts | 207° |
| 2026-04-22 15:04 | 50.73074 | -1.52388 | 21276 ft | 394 kts | 207° |
| 2026-04-22 15:04 | 50.70624 | -1.54332 | 21275 ft | 395 kts | 207° |
| 2026-04-22 15:05 | 50.68172 | -1.56277 | 21274 ft | 394 kts | 208° |
| 2026-04-22 15:05 | 50.65724 | -1.58214 | 21271 ft | 394 kts | 207° |
| 2026-04-22 15:05 | 50.63272 | -1.60148 | 21265 ft | 394 kts | 208° |
| 2026-04-22 15:05 | 50.60820 | -1.62076 | 21259 ft | 394 kts | 207° |
| 2026-04-22 15:06 | 50.58365 | -1.64005 | 21265 ft | 394 kts | 207° |
| 2026-04-22 15:06 | 50.55910 | -1.65931 | 21268 ft | 394 kts | 207° |
| 2026-04-22 15:06 | 50.53457 | -1.67856 | 21263 ft | 395 kts | 207° |
| 2026-04-22 15:06 | 50.50997 | -1.69788 | 21267 ft | 395 kts | 207° |
| 2026-04-22 15:07 | 50.48544 | -1.71710 | 21267 ft | 395 kts | 207° |
| 2026-04-22 15:07 | 50.46085 | -1.73632 | 21267 ft | 395 kts | 207° |
| 2026-04-22 15:07 | 50.43625 | -1.75554 | 21267 ft | 395 kts | 207° |
| 2026-04-22 15:07 | 50.41169 | -1.77473 | 21271 ft | 395 kts | 207° |
| 2026-04-22 15:08 | 50.38743 | -1.79369 | 21263 ft | 395 kts | 207° |
| 2026-04-22 15:08 | 50.36252 | -1.81312 | 21263 ft | 395 kts | 207° |
| 2026-04-22 15:08 | 50.33823 | -1.83198 | 21267 ft | 395 kts | 207° |
| 2026-04-22 15:08 | 50.31365 | -1.85102 | 21264 ft | 394 kts | 206° |
| 2026-04-22 15:09 | 50.28908 | -1.87007 | 21279 ft | 393 kts | 206° |
| 2026-04-22 15:09 | 50.26461 | -1.88905 | 21283 ft | 392 kts | 206° |
| 2026-04-22 15:09 | 50.24023 | -1.90793 | 21285 ft | 391 kts | 206° |
| 2026-04-22 15:09 | 50.21585 | -1.92683 | 21277 ft | 390 kts | 206° |
| 2026-04-22 15:10 | 50.19156 | -1.94567 | 21273 ft | 390 kts | 207° |
| 2026-04-22 15:10 | 50.16730 | -1.96445 | 21273 ft | 389 kts | 206° |
| 2026-04-22 15:10 | 50.14303 | -1.98319 | 21272 ft | 389 kts | 206° |
| 2026-04-22 15:10 | 50.11881 | -2.00188 | 21270 ft | 388 kts | 206° |
| 2026-04-22 15:11 | 50.09457 | -2.02056 | 21265 ft | 388 kts | 206° |
| 2026-04-22 15:11 | 50.07037 | -2.03914 | 21264 ft | 388 kts | 206° |
| 2026-04-22 15:11 | 50.04615 | -2.05768 | 21263 ft | 388 kts | 206° |
| 2026-04-22 15:11 | 50.02209 | -2.07607 | 20929 ft | 383 kts | 206° |
| 2026-04-22 15:12 | 49.99849 | -2.09488 | 20443 ft | 379 kts | 211° |
| 2026-04-22 15:12 | 49.97721 | -2.11870 | 19952 ft | 376 kts | 221° |
| 2026-04-22 15:12 | 49.95906 | -2.14758 | 19469 ft | 372 kts | 229° |
| 2026-04-22 15:12 | 49.94208 | -2.17755 | 18989 ft | 368 kts | 228° |
| 2026-04-22 15:13 | 49.92517 | -2.20711 | 18519 ft | 364 kts | 228° |
| 2026-04-22 15:13 | 49.90841 | -2.23626 | 17979 ft | 360 kts | 227° |
| 2026-04-22 15:13 | 49.89181 | -2.26510 | 17451 ft | 358 kts | 227° |
| 2026-04-22 15:13 | 49.87534 | -2.29374 | 16939 ft | 354 kts | 227° |
| 2026-04-22 15:14 | 49.85902 | -2.32214 | 16429 ft | 351 kts | 227° |
| 2026-04-22 15:14 | 49.84285 | -2.35026 | 15922 ft | 348 kts | 227° |
| 2026-04-22 15:14 | 49.82681 | -2.37812 | 15426 ft | 345 kts | 227° |
| 2026-04-22 15:14 | 49.81084 | -2.40582 | 14943 ft | 343 kts | 227° |
| 2026-04-22 15:15 | 49.79498 | -2.43332 | 14330 ft | 344 kts | 227° |
| 2026-04-22 15:15 | 49.77921 | -2.46066 | 13624 ft | 346 kts | 227° |
| 2026-04-22 15:15 | 49.76311 | -2.48850 | 12888 ft | 348 kts | 227° |
| 2026-04-22 15:15 | 49.74694 | -2.51643 | 12173 ft | 349 kts | 226° |
| 2026-04-22 15:16 | 49.73072 | -2.54436 | 11470 ft | 349 kts | 224° |
| 2026-04-22 15:16 | 49.71241 | -2.56865 | 10783 ft | 346 kts | 212° |
| 2026-04-22 15:16 | 49.69103 | -2.58512 | 10105 ft | 343 kts | 197° |
| 2026-04-22 15:16 | 49.66794 | -2.59305 | 9354 ft | 339 kts | 183° |
| 2026-04-22 15:17 | 49.64441 | -2.59449 | 8624 ft | 337 kts | 178° |
| 2026-04-22 15:17 | 49.62130 | -2.59547 | 7906 ft | 327 kts | 178° |
| 2026-04-22 15:17 | 49.59893 | -2.59648 | 7215 ft | 317 kts | 178° |
| 2026-04-22 15:17 | 49.57720 | -2.59751 | 6538 ft | 308 kts | 178° |
| 2026-04-22 15:18 | 49.55629 | -2.59853 | 6104 ft | 293 kts | 178° |
| 2026-04-22 15:18 | 49.53649 | -2.60025 | 5740 ft | 279 kts | 185° |
| 2026-04-22 15:18 | 49.51889 | -2.61196 | 5396 ft | 278 kts | 212° |
| 2026-04-22 15:18 | 49.50685 | -2.63489 | 5047 ft | 279 kts | 240° |
| 2026-04-22 15:19 | 49.50280 | -2.66397 | 4688 ft | 279 kts | 264° |
| 2026-04-22 15:19 | 49.50282 | -2.69356 | 4308 ft | 274 kts | 267° |
| 2026-04-22 15:19 | 49.50307 | -2.72256 | 3901 ft | 268 kts | 265° |
| 2026-04-22 15:19 | 49.50274 | -2.75087 | 3528 ft | 261 kts | 265° |
| 2026-04-22 15:20 | 49.50244 | -2.76917 | 3309 ft | 256 kts | 264° |
| 2026-04-22 15:20 | 49.50135 | -2.80526 | 2863 ft | 252 kts | 255° |
| 2026-04-22 15:20 | 49.49398 | -2.82821 | 2541 ft | 233 kts | 220° |
| 2026-04-22 15:20 | 49.48116 | -2.84155 | 2205 ft | 217 kts | 191° |
| 2026-04-22 15:21 | 49.46694 | -2.84419 | 2013 ft | 196 kts | 165° |
| 2026-04-22 15:21 | 49.45439 | -2.83853 | 1996 ft | 185 kts | 150° |
| 2026-04-22 15:21 | 49.44245 | -2.83118 | 1996 ft | 183 kts | 150° |
| 2026-04-22 15:21 | 49.43104 | -2.82428 | 1995 ft | 172 kts | 150° |
| 2026-04-22 15:22 | 49.42313 | -2.81323 | 2160 ft | 158 kts | 101° |
| 2026-04-22 15:22 | 49.42563 | -2.79671 | 2133 ft | 164 kts | 70° |
| 2026-04-22 15:22 | 49.42966 | -2.78071 | 2056 ft | 157 kts | 85° |
| 2026-04-22 15:22 | 49.43030 | -2.76417 | 2040 ft | 154 kts | 90° |
| 2026-04-22 15:23 | 49.43079 | -2.74799 | 2020 ft | 147 kts | 90° |
| 2026-04-22 15:23 | 49.43124 | -2.73280 | 1851 ft | 137 kts | 89° |
| 2026-04-22 15:23 | 49.43164 | -2.71894 | 1704 ft | 123 kts | 89° |
| 2026-04-22 15:23 | 49.43200 | -2.70662 | 1545 ft | 108 kts | 89° |
| 2026-04-22 15:24 | 49.43231 | -2.69555 | 1407 ft | 101 kts | 88° |
| 2026-04-22 15:24 | 49.43262 | -2.68491 | 1271 ft | 99 kts | 87° |
| 2026-04-22 15:24 | 49.43292 | -2.67423 | 1123 ft | 103 kts | 85° |
| 2026-04-22 15:24 | 49.43333 | -2.66320 | 1032 ft | 105 kts | 86° |
| 2026-04-22 15:25 | 49.43367 | -2.65165 | 846 ft | 109 kts | 87° |
| 2026-04-22 15:25 | 49.43396 | -2.64024 | 664 ft | 108 kts | 85° |
| 2026-04-22 15:25 | 49.43431 | -2.62844 | 524 ft | 111 kts | 86° |
| 2026-04-22 15:25 | 49.43455 | -2.61643 | 379 ft | 113 kts | 84° |
| 2026-04-22 15:26 | 49.43488 | -2.60489 | 311 ft | 95 kts | 85° |
| 2026-04-22 15:26 | 49.43511 | -2.59792 | 326 ft | 23 kts | 88° |
| 2026-04-22 15:26 | 49.43512 | -2.59650 | 329 ft | 20 kts | 88° |
| 2026-04-22 15:26 | 49.43521 | -2.59353 | 335 ft | 33 kts | 87° |
| 2026-04-22 15:27 | 49.43460 | -2.59198 | 334 ft | 7 kts | 176° |
| 2026-04-22 15:27 | 49.43418 | -2.59195 | 334 ft | 0 kts | 182° |
| 2026-04-22 15:27 | 49.43404 | -2.59198 | 331 ft | 3 kts | 188° |
| 2026-04-22 15:27 | 49.43382 | -2.59221 | 332 ft | 5 kts | 227° |
| 2026-04-22 15:28 | 49.43371 | -2.59297 | 335 ft | 9 kts | 266° |
| 2026-04-22 15:28 | 49.43367 | -2.59416 | 330 ft | 13 kts | 267° |
| 2026-04-22 15:28 | 49.43362 | -2.59573 | 329 ft | 15 kts | 268° |
| 2026-04-22 15:28 | 49.43307 | -2.59623 | 329 ft | 11 kts | 178° |
| 2026-04-22 15:29 | 49.43264 | -2.59621 | 328 ft | 2 kts | 178° |
| 2026-04-22 15:29 | 49.43253 | -2.59620 | 328 ft | 0 kts | 178° |